KSRB  Upper Cumberland Regional Airport

Add Bookmark

Sparta, Tennessee, United States

Status Useage
Operational Public
Latitude Longitude
36° 3' 24" N 85° 31' 48" W
36.056739 -85.530108
Local (DST -5) UTC (GMT -6)
Jul 23, 2014 02:39 Jul 23, 2014 07:39
Sunrise-Sunset Local UTC
Begin Civil Twilight 05:12 10:12
Sunrise 05:41 10:41
Sunset 07:55 00:55
End Civil Twilight 08:24 01:24

Current Weather

METAR Observed VFR
KSRB 230715Z AUTO 00000KT 10SM FEW060 23/22 A3009 Wed, Jul 23, 2014 @ 07:15 UTC
(24 Minutes ago)
Visual Flight Rules

Decoded METAR

Wind Visibility Clouds Conditions
Calm 10 statute miles
  • Few at 6,000' AGL
  • No significant weather
Temperatures Readings Precipitation
Current Temp 23°C (73°F)
Dewpoint 22°C (72°F)
Humidity 94%
Altimeter 30.09"Hg
Sea Level Pressure 1019mb
None Recorded

Additional weather within a 50nm radius of KSRB

Map ICAO Location METAR
KCSV 22.5nm E (106°) 46 mins ago
KRNC 26.3nm S (215°) 24 mins ago
KMQY 48.1nm W (267°) 43 mins ago

24 Hour Weather History

Loading
-

24 Hour Weather Graphs

Loading
-

CheckWX.com is intended as a tool to help pilots better visualize weather data. It is not intended as a substitute for an official weather briefing obtained from a Flight Service Station. CheckWX.com does not meet the FAA requirements for an official pre-flight weather briefing. Therefore, it's important that pilots still call and obtain an official FSS pre-flight weather briefing.